Juniata, Nebraska
Current Conditions -  °F | °C
As of 1:27 PM on Sunday 21 Dec 2014 (Local Time) from KHSI Reporting Station
Haze Haze  
Wind Chill:   Ceiling: 500
Heat Index:   Visibility: 5mi
Dew Point:   Wind: 14mph
Humidity: 89%   Direction: 200°SSW
Pressure: 29.67"   Gusts: 23mph
Location:  40.59°N, 98.51°W
Report Text: KHSI 211927Z AUTO 20012G20KT 5SM BR OVC005 04/03 A2967 RMK AO2 T00440028
Loading
Personal Weather Stations






























Interactive Weather Map New forecast layout! Learn more

10-Day Weather Forecast

Advertisements
Track Severe Weather on mobile